createdAt,value
2023-10-12T00:00:20.366Z,20.52
2023-10-12T00:02:49.107Z,20.53
2023-10-12T00:05:19.667Z,20.49
2023-10-12T00:07:51.153Z,20.46
2023-10-12T00:10:18.131Z,20.47
2023-10-12T00:12:47.166Z,20.39
2023-10-12T00:15:19.439Z,20.33
2023-10-12T00:17:46.228Z,20.32
2023-10-12T00:20:22.517Z,20.33
2023-10-12T00:22:49.493Z,20.31
2023-10-12T00:25:17.712Z,20.33
2023-10-12T00:27:45.068Z,20.26
2023-10-12T00:30:15.810Z,20.37
2023-10-12T00:32:42.697Z,20.32
2023-10-12T00:35:12.110Z,20.27
2023-10-12T00:37:42.180Z,20.32
2023-10-12T00:40:32.166Z,20.31
2023-10-12T00:43:02.321Z,20.25
2023-10-12T00:45:31.179Z,20.33
2023-10-12T00:48:17.225Z,20.20
2023-10-12T00:50:48.763Z,20.22
2023-10-12T00:53:23.663Z,20.17
2023-10-12T00:55:52.120Z,20.07
2023-10-12T00:58:19.210Z,20.04
2023-10-12T01:00:47.218Z,20.03
2023-10-12T01:03:36.286Z,20.03
2023-10-12T01:06:12.058Z,20.01
2023-10-12T01:08:44.492Z,20.12
2023-10-12T01:11:20.647Z,20.14
2023-10-12T01:13:50.407Z,20.22
2023-10-12T01:16:24.670Z,20.24
2023-10-12T01:18:57.775Z,20.21
2023-10-12T01:21:24.657Z,20.14
2023-10-12T01:23:54.273Z,20.12
2023-10-12T01:26:21.312Z,20.12
2023-10-12T01:28:50.798Z,20.13
2023-10-12T01:31:29.027Z,20.18
2023-10-12T01:34:01.120Z,20.21
2023-10-12T01:36:31.647Z,20.29
2023-10-12T01:39:12.066Z,20.33
2023-10-12T01:41:42.041Z,20.28
2023-10-12T01:44:12.940Z,20.27
2023-10-12T01:46:42.738Z,20.24
2023-10-12T01:49:11.105Z,20.25
2023-10-12T01:51:42.689Z,20.27
2023-10-12T01:54:13.354Z,20.32
2023-10-12T01:56:40.256Z,20.31
2023-10-12T01:59:08.559Z,20.21
2023-10-12T02:01:36.030Z,20.21
2023-10-12T02:04:06.984Z,20.16
2023-10-12T02:06:34.441Z,20.18
2023-10-12T02:09:10.263Z,20.05
2023-10-12T02:11:44.913Z,19.99
2023-10-12T02:14:13.994Z,20.17
2023-10-12T02:16:54.130Z,20.15
2023-10-12T02:19:32.566Z,20.02
2023-10-12T02:22:01.825Z,19.95
2023-10-12T02:24:28.732Z,20.01
2023-10-12T02:26:56.009Z,20.04
2023-10-12T02:29:22.679Z,20.12
2023-10-12T02:31:53.389Z,20.06
2023-10-12T02:34:21.664Z,20.14
2023-10-12T02:37:02.770Z,20.15
2023-10-12T02:39:30.732Z,20.22
2023-10-12T02:42:16.709Z,20.17
2023-10-12T02:44:57.104Z,20.16
2023-10-12T02:47:24.937Z,20.07
2023-10-12T02:50:18.321Z,20.03
2023-10-12T02:52:45.312Z,20.01
2023-10-12T02:55:21.098Z,20.17
2023-10-12T02:58:10.538Z,20.18
2023-10-12T03:00:45.144Z,20.10
2023-10-12T03:03:33.396Z,20.03
2023-10-12T03:06:04.032Z,20.00
2023-10-12T03:08:35.108Z,20.03
2023-10-12T03:11:02.165Z,20.04
2023-10-12T03:13:36.078Z,20.04
2023-10-12T03:16:10.328Z,20.05
2023-10-12T03:18:37.304Z,19.95
2023-10-12T03:21:12.685Z,19.96
2023-10-12T03:23:40.752Z,19.93
2023-10-12T03:26:19.171Z,19.95
2023-10-12T03:28:46.717Z,19.99
2023-10-12T03:31:37.783Z,19.96
2023-10-12T03:34:17.601Z,19.94
2023-10-12T03:36:49.471Z,19.89
2023-10-12T03:39:27.604Z,20.04
2023-10-12T03:41:56.627Z,20.10
2023-10-12T03:44:43.306Z,20.12
2023-10-12T03:47:22.929Z,20.09
2023-10-12T03:49:53.786Z,20.07
2023-10-12T03:52:21.130Z,20.03
2023-10-12T03:55:00.367Z,20.15
2023-10-12T03:57:40.407Z,20.12
2023-10-12T04:00:11.498Z,20.12
2023-10-12T04:02:51.889Z,20.12
2023-10-12T04:05:35.697Z,20.11
2023-10-12T04:08:06.724Z,20.09
2023-10-12T04:11:03.501Z,20.00
2023-10-12T04:13:30.575Z,19.94
2023-10-12T04:16:11.702Z,19.93
2023-10-12T04:18:43.844Z,19.87
2023-10-12T04:21:11.579Z,19.84
2023-10-12T04:23:51.137Z,19.86
2023-10-12T04:26:17.809Z,19.82
2023-10-12T04:28:52.959Z,19.76
2023-10-12T04:31:34.396Z,19.73
2023-10-12T04:34:04.447Z,19.64
2023-10-12T04:36:53.864Z,19.65
2023-10-12T04:39:20.415Z,19.62
2023-10-12T04:41:47.040Z,19.58
2023-10-12T04:44:30.003Z,19.54
2023-10-12T04:47:04.634Z,19.54
2023-10-12T04:49:33.428Z,19.59
2023-10-12T04:52:13.023Z,19.58
2023-10-12T04:55:22.108Z,19.49
2023-10-12T04:57:57.401Z,19.43
2023-10-12T05:00:35.946Z,19.47
2023-10-12T05:03:22.663Z,19.44
2023-10-12T05:06:05.615Z,19.39
2023-10-12T05:08:34.364Z,19.28
2023-10-12T05:11:01.349Z,19.28
2023-10-12T05:13:28.443Z,19.16
2023-10-12T05:16:08.121Z,19.10
2023-10-12T05:18:35.487Z,19.08
2023-10-12T05:21:05.658Z,19.06
2023-10-12T05:23:32.373Z,19.07
2023-10-12T05:25:59.075Z,19.02
2023-10-12T05:28:32.176Z,19.06
2023-10-12T05:31:09.439Z,19.06
2023-10-12T05:33:40.052Z,19.12
2023-10-12T05:36:14.848Z,19.16
2023-10-12T05:38:50.485Z,19.15
2023-10-12T05:41:23.639Z,19.22
2023-10-12T05:43:50.464Z,19.21
2023-10-12T05:46:17.745Z,19.33
2023-10-12T05:48:48.091Z,19.37
2023-10-12T05:51:16.496Z,19.39
2023-10-12T05:53:43.266Z,19.39
2023-10-12T05:56:10.033Z,19.40
2023-10-12T05:58:40.306Z,19.38
2023-10-12T06:01:09.758Z,19.42
2023-10-12T06:03:47.404Z,19.42
2023-10-12T06:06:15.773Z,19.44
2023-10-12T06:08:42.457Z,19.46
2023-10-12T06:11:10.517Z,19.50
2023-10-12T06:13:44.938Z,19.55
2023-10-12T06:16:22.705Z,19.58
2023-10-12T06:18:55.033Z,19.65
2023-10-12T06:21:21.721Z,19.66
2023-10-12T06:23:51.168Z,19.68
2023-10-12T06:26:29.635Z,19.66
2023-10-12T06:29:00.247Z,19.72
2023-10-12T06:31:27.622Z,19.81
2023-10-12T06:33:56.663Z,19.90
2023-10-12T06:36:39.005Z,20.03
2023-10-12T06:39:19.521Z,20.13
2023-10-12T06:41:47.505Z,20.21
2023-10-12T06:44:19.525Z,20.34
2023-10-12T06:46:47.417Z,20.46
2023-10-12T06:49:23.695Z,20.43
2023-10-12T06:52:03.106Z,20.56
2023-10-12T06:54:54.722Z,20.49
2023-10-12T06:57:42.166Z,20.68
2023-10-12T07:00:10.117Z,20.63
2023-10-12T07:02:36.768Z,20.43
2023-10-12T07:05:06.126Z,20.26
2023-10-12T07:07:44.816Z,19.99
2023-10-12T07:10:11.815Z,19.61
2023-10-12T07:12:49.405Z,19.32
2023-10-12T07:15:22.636Z,19.12
2023-10-12T07:17:50.497Z,18.86
2023-10-12T07:20:47.313Z,18.73
2023-10-12T07:23:16.920Z,18.69
2023-10-12T07:25:49.996Z,18.61
2023-10-12T07:28:27.119Z,18.58
2023-10-12T07:31:12.482Z,18.56
2023-10-12T07:33:52.297Z,18.60
2023-10-12T07:36:19.373Z,18.64
2023-10-12T07:38:56.197Z,18.61
2023-10-12T07:41:34.708Z,18.60
2023-10-12T07:44:01.426Z,18.56
2023-10-12T07:46:29.002Z,18.51
2023-10-12T07:49:11.840Z,18.36
2023-10-12T07:51:55.754Z,18.28
2023-10-12T07:54:42.730Z,18.16
2023-10-12T07:57:11.212Z,18.11
2023-10-12T07:59:43.934Z,18.17
2023-10-12T08:02:16.739Z,18.22
2023-10-12T08:05:17.108Z,18.22
2023-10-12T08:08:00.247Z,18.25
2023-10-12T08:10:40.495Z,18.24
2023-10-12T08:13:27.188Z,18.08
2023-10-12T08:15:56.572Z,18.12
2023-10-12T08:18:50.066Z,18.03
2023-10-12T08:21:38.962Z,18.00
2023-10-12T08:24:21.714Z,18.01
2023-10-12T08:26:48.851Z,18.11
2023-10-12T08:29:22.995Z,18.13
2023-10-12T08:32:10.272Z,18.11
2023-10-12T08:34:39.962Z,18.10
2023-10-12T08:37:19.411Z,18.16
2023-10-12T08:40:00.533Z,18.32
2023-10-12T08:42:34.800Z,18.43
2023-10-12T08:45:16.392Z,18.60
2023-10-12T08:47:50.602Z,18.67
2023-10-12T08:50:17.977Z,18.68
2023-10-12T08:52:52.297Z,18.75
2023-10-12T08:55:26.169Z,18.78
2023-10-12T08:58:17.862Z,18.92
2023-10-12T09:01:00.639Z,19.01
2023-10-12T09:03:39.353Z,19.04
2023-10-12T09:06:26.046Z,19.08
2023-10-12T09:08:52.673Z,19.06
2023-10-12T09:11:27.197Z,18.96
2023-10-12T09:13:53.852Z,18.98
2023-10-12T09:16:20.664Z,19.03
2023-10-12T09:18:58.509Z,18.79
2023-10-12T09:21:30.297Z,18.73
2023-10-12T09:24:06.748Z,18.66
2023-10-12T09:26:38.601Z,18.56
2023-10-12T09:29:08.361Z,18.51
2023-10-12T09:31:37.307Z,18.43
2023-10-12T09:34:16.972Z,18.44
2023-10-12T09:36:45.630Z,18.39
2023-10-12T09:39:18.159Z,18.36
2023-10-12T09:41:59.106Z,18.39
2023-10-12T09:44:36.837Z,18.24
2023-10-12T09:47:18.017Z,18.03
2023-10-12T09:49:56.985Z,17.91
2023-10-12T09:52:47.875Z,17.83
2023-10-12T09:55:28.429Z,17.87
2023-10-12T09:57:56.436Z,17.70
2023-10-12T10:00:50.086Z,17.70
2023-10-12T10:03:19.195Z,17.57
2023-10-12T10:05:56.011Z,17.44
2023-10-12T10:08:30.372Z,17.52
2023-10-12T10:10:59.141Z,17.58
2023-10-12T10:13:48.644Z,17.58
2023-10-12T10:16:18.754Z,17.49
2023-10-12T10:19:14.790Z,17.50
2023-10-12T10:21:53.645Z,17.66
2023-10-12T10:24:25.495Z,17.87
2023-10-12T10:27:19.610Z,18.01
2023-10-12T10:29:55.050Z,17.96
2023-10-12T10:32:37.981Z,18.16
2023-10-12T10:35:14.121Z,18.28
2023-10-12T10:37:49.023Z,18.41
2023-10-12T10:40:20.061Z,18.40
2023-10-12T10:43:06.162Z,18.58
2023-10-12T10:45:37.411Z,18.68
2023-10-12T10:48:28.887Z,18.64
2023-10-12T10:50:52.419Z,18.83
2023-10-12T10:53:20.340Z,19.05
2023-10-12T10:55:51.903Z,19.12
2023-10-12T10:58:23.426Z,19.20
2023-10-12T11:00:57.706Z,19.05
2023-10-12T11:03:27.244Z,19.16
2023-10-12T11:05:54.583Z,19.31
2023-10-12T11:08:28.259Z,19.28
2023-10-12T11:11:11.109Z,19.31
2023-10-12T11:13:40.738Z,19.48
2023-10-12T11:16:43.499Z,19.47
2023-10-12T11:19:10.526Z,19.32
2023-10-12T11:21:37.641Z,19.29
2023-10-12T11:24:05.396Z,19.32
2023-10-12T11:26:40.890Z,19.26
2023-10-12T11:29:08.186Z,19.24
2023-10-12T11:31:35.225Z,19.26
2023-10-12T11:34:11.093Z,18.91
2023-10-12T11:36:38.022Z,19.03
2023-10-12T11:39:17.549Z,18.96
2023-10-12T11:42:08.153Z,18.95
2023-10-12T11:44:38.280Z,18.87
2023-10-12T11:47:08.748Z,18.71
2023-10-12T11:49:48.664Z,18.68
2023-10-12T11:52:19.076Z,18.53
2023-10-12T11:54:46.285Z,18.56
2023-10-12T11:57:15.443Z,18.59
2023-10-12T11:59:43.714Z,18.60
2023-10-12T12:02:17.685Z,18.50
2023-10-12T12:04:57.585Z,18.61
2023-10-12T12:07:32.533Z,18.55
2023-10-12T12:10:03.035Z,18.45
2023-10-12T12:12:30.157Z,18.42
2023-10-12T12:14:56.952Z,18.46
2023-10-12T12:17:28.492Z,18.38
2023-10-12T12:19:55.264Z,18.33
2023-10-12T12:22:24.745Z,18.35
2023-10-12T12:24:51.457Z,18.34
2023-10-12T12:27:38.950Z,18.35
2023-10-12T12:32:41.463Z,18.42
2023-10-12T12:35:08.471Z,18.31
2023-10-12T12:37:39.423Z,18.33
2023-10-12T12:40:28.810Z,18.38
2023-10-12T12:42:55.920Z,18.35
2023-10-12T12:45:22.899Z,18.29
2023-10-12T12:47:49.869Z,18.23
2023-10-12T12:50:16.623Z,18.20
2023-10-12T12:52:47.577Z,18.19
2023-10-12T12:55:19.451Z,18.26
2023-10-12T12:57:47.294Z,18.27
2023-10-12T13:00:21.114Z,18.24
2023-10-12T13:02:48.612Z,18.23
2023-10-12T13:05:16.078Z,18.32
2023-10-12T13:07:44.696Z,18.23
2023-10-12T13:10:12.884Z,18.16
2023-10-12T13:12:42.729Z,18.13
2023-10-12T13:15:11.088Z,18.14
2023-10-12T13:17:38.770Z,18.11
2023-10-12T13:20:10.159Z,18.10
2023-10-12T13:22:37.244Z,18.13
2023-10-12T13:25:06.027Z,18.15
2023-10-12T13:27:33.481Z,18.11
2023-10-12T13:30:10.629Z,18.05
2023-10-12T13:32:37.734Z,18.05
2023-10-12T13:35:19.307Z,18.04
2023-10-12T13:37:48.896Z,18.05
2023-10-12T13:40:18.404Z,18.01
2023-10-12T13:42:45.960Z,18.02
2023-10-12T13:45:19.709Z,18.02
2023-10-12T13:47:49.495Z,18.05
2023-10-12T13:50:16.440Z,18.04
2023-10-12T13:52:43.429Z,18.00
2023-10-12T13:55:17.632Z,18.06
2023-10-12T13:57:56.567Z,18.00
2023-10-12T14:00:27.818Z,17.97
2023-10-12T14:02:58.116Z,18.00
2023-10-12T14:05:31.222Z,18.05
2023-10-12T14:07:59.464Z,18.13
2023-10-12T14:10:30.933Z,18.17
2023-10-12T14:12:58.009Z,18.23
2023-10-12T14:15:28.298Z,18.24
2023-10-12T14:18:00.179Z,18.27
2023-10-12T14:20:30.074Z,18.24
2023-10-12T14:22:58.662Z,18.22
2023-10-12T14:25:29.984Z,18.30
2023-10-12T14:28:01.027Z,18.48
2023-10-12T14:30:31.060Z,18.59
2023-10-12T14:32:59.681Z,18.62
2023-10-12T14:35:26.359Z,18.76
2023-10-12T14:37:56.465Z,18.53
2023-10-12T14:40:31.137Z,18.51
2023-10-12T14:42:59.511Z,18.45
2023-10-12T14:45:26.850Z,18.44
2023-10-12T14:47:54.060Z,18.36
2023-10-12T14:50:21.789Z,18.41
2023-10-12T14:52:53.293Z,18.42
2023-10-12T14:55:21.528Z,18.34
2023-10-12T14:57:51.673Z,18.33
2023-10-12T15:00:23.749Z,18.24
2023-10-12T15:02:51.933Z,18.21
2023-10-12T15:05:20.028Z,18.27
2023-10-12T15:07:49.743Z,18.25
2023-10-12T15:12:50.055Z,18.34
2023-10-12T15:15:20.120Z,18.32
2023-10-12T15:17:47.286Z,18.29
2023-10-12T15:20:17.143Z,18.26
2023-10-12T15:22:47.482Z,18.22
2023-10-12T15:25:17.569Z,18.30
2023-10-12T15:27:45.523Z,18.30
2023-10-12T15:30:12.813Z,18.25
2023-10-12T15:32:42.499Z,18.27
2023-10-12T15:35:13.286Z,18.20
2023-10-12T15:37:49.473Z,18.11
2023-10-12T15:40:21.841Z,18.11
2023-10-12T15:42:52.149Z,18.06
2023-10-12T15:45:18.965Z,18.01
2023-10-12T15:47:49.491Z,17.96
2023-10-12T15:50:17.302Z,17.92
2023-10-12T15:52:50.854Z,17.93
2023-10-12T15:55:24.859Z,17.95
2023-10-12T15:57:53.883Z,17.92
2023-10-12T16:00:25.918Z,17.85
2023-10-12T16:03:09.824Z,17.85
2023-10-12T16:05:37.841Z,17.77
2023-10-12T16:08:16.515Z,17.72
2023-10-12T16:10:50.336Z,17.66
2023-10-12T16:13:17.604Z,17.60
2023-10-12T16:15:44.567Z,17.56
2023-10-12T16:18:13.107Z,17.54
2023-10-12T16:20:40.641Z,17.51
2023-10-12T16:23:07.876Z,17.50
2023-10-12T16:25:34.975Z,17.48
2023-10-12T16:28:02.234Z,17.48
2023-10-12T16:30:35.755Z,17.47
2023-10-12T16:33:03.370Z,17.45
2023-10-12T16:35:30.279Z,17.44
2023-10-12T16:38:03.008Z,17.41
2023-10-12T16:40:30.085Z,17.37
2023-10-12T16:42:58.620Z,17.35
2023-10-12T16:45:28.763Z,17.25
2023-10-12T16:47:56.189Z,17.18
2023-10-12T16:50:24.528Z,17.13
2023-10-12T16:52:51.979Z,17.06
2023-10-12T16:55:19.686Z,17.00
2023-10-12T16:57:47.044Z,16.93
2023-10-12T17:00:18.579Z,16.90
2023-10-12T17:02:46.963Z,16.87
2023-10-12T17:05:15.239Z,16.85
2023-10-12T17:07:45.955Z,16.82
2023-10-12T17:10:19.227Z,16.80
2023-10-12T17:12:46.104Z,16.79
2023-10-12T17:15:17.367Z,16.80
2023-10-12T17:17:44.023Z,16.82
2023-10-12T17:20:13.538Z,16.82
2023-10-12T17:22:40.516Z,16.81
2023-10-12T17:25:10.192Z,16.83
2023-10-12T17:27:37.556Z,16.85
2023-10-12T17:30:07.769Z,16.87
2023-10-12T17:32:34.936Z,16.89
2023-10-12T17:35:01.994Z,16.92
2023-10-12T17:37:28.892Z,16.93
2023-10-12T17:40:14.318Z,16.95
2023-10-12T17:42:49.022Z,17.00
2023-10-12T17:45:16.469Z,17.00
2023-10-12T17:47:46.128Z,17.02
2023-10-12T17:50:16.041Z,17.06
2023-10-12T17:52:44.161Z,17.08
2023-10-12T17:55:16.052Z,17.10
2023-10-12T17:57:44.286Z,17.11
2023-10-12T18:00:11.812Z,17.09
2023-10-12T18:02:43.135Z,17.08
2023-10-12T18:05:12.920Z,17.10
2023-10-12T18:07:41.809Z,17.07
2023-10-12T18:10:09.146Z,17.06
2023-10-12T18:12:37.347Z,17.03
2023-10-12T18:15:04.634Z,17.02
2023-10-12T18:17:37.097Z,17.02
2023-10-12T18:20:06.729Z,16.98
2023-10-12T18:22:36.702Z,16.96
2023-10-12T18:25:06.160Z,16.98
2023-10-12T18:27:32.852Z,17.00
2023-10-12T18:29:59.581Z,16.98
2023-10-12T18:32:27.178Z,16.99
2023-10-12T18:34:54.817Z,16.99
2023-10-12T18:37:21.606Z,16.99
2023-10-12T18:39:48.678Z,17.01
2023-10-12T18:42:16.318Z,17.06
2023-10-12T18:44:43.472Z,17.09
2023-10-12T18:47:10.107Z,17.06
2023-10-12T18:49:37.442Z,17.03
2023-10-12T18:52:04.602Z,17.02
2023-10-12T18:54:31.684Z,17.01
2023-10-12T18:56:58.384Z,17.05
2023-10-12T18:59:26.225Z,17.06
2023-10-12T19:01:53.990Z,17.05
2023-10-12T19:04:20.794Z,17.04
2023-10-12T19:06:49.593Z,17.04
2023-10-12T19:09:17.759Z,17.04
2023-10-12T19:11:47.063Z,17.05
2023-10-12T19:14:15.781Z,17.03
2023-10-12T19:16:42.921Z,17.00
2023-10-12T19:19:09.735Z,17.01
2023-10-12T19:21:38.860Z,16.99
2023-10-12T19:24:15.299Z,16.98
2023-10-12T19:26:42.728Z,16.98
2023-10-12T19:29:10.073Z,16.94
2023-10-12T19:31:42.956Z,16.88
2023-10-12T19:34:10.370Z,16.80
2023-10-12T19:36:37.357Z,16.75
2023-10-12T19:39:08.979Z,16.68
2023-10-12T19:41:36.938Z,16.65
2023-10-12T19:44:09.233Z,16.60
2023-10-12T19:46:36.703Z,16.58
2023-10-12T19:49:03.601Z,16.59
2023-10-12T19:51:32.961Z,16.57
2023-10-12T19:53:59.952Z,16.56
2023-10-12T19:56:26.817Z,16.58
2023-10-12T19:58:55.631Z,16.58
2023-10-12T20:01:22.979Z,16.57
2023-10-12T20:03:50.996Z,16.57
2023-10-12T20:06:19.081Z,16.57
2023-10-12T20:08:49.812Z,16.58
2023-10-12T20:11:19.774Z,16.57
2023-10-12T20:13:48.989Z,16.54
2023-10-12T20:16:32.129Z,16.55
2023-10-12T20:18:59.165Z,16.52
2023-10-12T20:21:27.288Z,16.52
2023-10-12T20:23:54.998Z,16.54
2023-10-12T20:26:24.655Z,16.58
2023-10-12T20:28:51.411Z,16.61
2023-10-12T20:31:18.307Z,16.66
2023-10-12T20:33:45.250Z,16.69
2023-10-12T20:36:12.284Z,16.69
2023-10-12T20:38:40.590Z,16.69
2023-10-12T20:41:07.806Z,16.70
2023-10-12T20:43:35.460Z,16.71
2023-10-12T20:46:11.637Z,16.71
2023-10-12T20:48:39.157Z,16.70
2023-10-12T20:51:06.556Z,16.70
2023-10-12T20:53:37.630Z,16.70
2023-10-12T20:56:11.323Z,16.68
2023-10-12T20:58:45.816Z,16.69
2023-10-12T21:01:28.161Z,16.69
2023-10-12T21:03:58.894Z,16.68
2023-10-12T21:06:28.264Z,16.68
2023-10-12T21:09:06.913Z,16.64
2023-10-12T21:11:33.760Z,16.61
2023-10-12T21:14:05.234Z,16.59
2023-10-12T21:16:35.789Z,16.58
2023-10-12T21:19:15.331Z,16.56
2023-10-12T21:21:42.515Z,16.55
2023-10-12T21:24:19.181Z,16.53
2023-10-12T21:26:47.320Z,16.52
2023-10-12T21:29:23.137Z,16.52
2023-10-12T21:32:02.629Z,16.52
2023-10-12T21:34:32.570Z,16.52
2023-10-12T21:37:08.386Z,16.51
2023-10-12T21:39:42.723Z,16.49
2023-10-12T21:42:11.391Z,16.47
2023-10-12T21:44:40.199Z,16.46
2023-10-12T21:47:10.634Z,16.44
2023-10-12T21:49:41.394Z,16.46
2023-10-12T21:52:08.365Z,16.48
2023-10-12T21:54:35.881Z,16.46
2023-10-12T21:57:03.533Z,16.46
2023-10-12T21:59:30.456Z,16.47
2023-10-12T22:02:15.589Z,16.48
2023-10-12T22:04:47.937Z,16.49
2023-10-12T22:07:18.048Z,16.50
2023-10-12T22:09:59.482Z,16.49
2023-10-12T22:12:28.820Z,16.50
2023-10-12T22:15:02.726Z,16.50
2023-10-12T22:17:29.899Z,16.49
2023-10-12T22:19:57.751Z,16.48
2023-10-12T22:22:30.506Z,16.50
2023-10-12T22:25:00.823Z,16.51
2023-10-12T22:27:33.236Z,16.51
2023-10-12T22:30:01.188Z,16.51
2023-10-12T22:32:28.022Z,16.52
2023-10-12T22:34:54.792Z,16.52
2023-10-12T22:37:22.778Z,16.53
2023-10-12T22:39:52.889Z,16.52
2023-10-12T22:42:28.901Z,16.53
2023-10-12T22:44:56.146Z,16.52
2023-10-12T22:47:23.423Z,16.51
2023-10-12T22:49:50.108Z,16.52
2023-10-12T22:52:16.728Z,16.53
2023-10-12T22:54:44.063Z,16.51
2023-10-12T22:57:10.741Z,16.52
2023-10-12T22:59:38.187Z,16.53
2023-10-12T23:02:05.231Z,16.54
2023-10-12T23:04:32.592Z,16.52
2023-10-12T23:07:00.198Z,16.53
2023-10-12T23:09:28.892Z,16.53
2023-10-12T23:11:56.306Z,16.53
2023-10-12T23:14:28.394Z,16.53
2023-10-12T23:16:59.005Z,16.54
2023-10-12T23:19:44.729Z,16.56
2023-10-12T23:22:41.306Z,16.58
2023-10-12T23:25:08.201Z,16.61
2023-10-12T23:27:34.909Z,16.62
2023-10-12T23:30:12.071Z,16.65
2023-10-12T23:32:39.308Z,16.65
2023-10-12T23:35:12.293Z,16.66
2023-10-12T23:37:59.019Z,16.67
2023-10-12T23:40:29.047Z,16.68
2023-10-12T23:42:55.763Z,16.69
2023-10-12T23:45:37.424Z,16.70
2023-10-12T23:48:11.088Z,16.70
2023-10-12T23:50:44.541Z,16.70
2023-10-12T23:53:19.075Z,16.72
2023-10-12T23:55:47.524Z,16.72
2023-10-12T23:58:15.693Z,16.71
